sensor_id;sensor_type;location;lat;lon;timestamp;P1;durP1;ratioP1;P2;durP2;ratioP2
7306;SDS011;3694;48.732;9.248;2023-08-30T00:02:04;4.10;;;3.37;;
7306;SDS011;3694;48.732;9.248;2023-08-30T00:04:30;4.03;;;3.13;;
7306;SDS011;3694;48.732;9.248;2023-08-30T00:06:55;3.43;;;3.03;;
7306;SDS011;3694;48.732;9.248;2023-08-30T00:09:21;4.03;;;3.27;;
7306;SDS011;3694;48.732;9.248;2023-08-30T00:11:46;3.37;;;2.97;;
7306;SDS011;3694;48.732;9.248;2023-08-30T00:14:12;3.90;;;3.23;;
7306;SDS011;3694;48.732;9.248;2023-08-30T00:16:38;3.57;;;3.27;;
7306;SDS011;3694;48.732;9.248;2023-08-30T00:19:03;3.93;;;3.33;;
7306;SDS011;3694;48.732;9.248;2023-08-30T00:21:29;4.07;;;3.47;;
7306;SDS011;3694;48.732;9.248;2023-08-30T00:23:55;4.23;;;3.27;;
7306;SDS011;3694;48.732;9.248;2023-08-30T00:26:20;3.40;;;3.07;;
7306;SDS011;3694;48.732;9.248;2023-08-30T00:28:46;3.90;;;3.47;;
7306;SDS011;3694;48.732;9.248;2023-08-30T00:31:12;4.17;;;3.47;;
7306;SDS011;3694;48.732;9.248;2023-08-30T00:33:37;3.53;;;3.23;;
7306;SDS011;3694;48.732;9.248;2023-08-30T00:36:03;3.90;;;3.57;;
7306;SDS011;3694;48.732;9.248;2023-08-30T00:38:32;3.43;;;2.90;;
7306;SDS011;3694;48.732;9.248;2023-08-30T00:40:58;3.40;;;3.10;;
7306;SDS011;3694;48.732;9.248;2023-08-30T00:43:24;3.73;;;3.03;;
7306;SDS011;3694;48.732;9.248;2023-08-30T00:45:50;3.23;;;2.93;;
7306;SDS011;3694;48.732;9.248;2023-08-30T00:48:16;3.30;;;3.00;;
7306;SDS011;3694;48.732;9.248;2023-08-30T00:50:44;4.80;;;3.40;;
7306;SDS011;3694;48.732;9.248;2023-08-30T00:53:10;4.63;;;3.63;;
7306;SDS011;3694;48.732;9.248;2023-08-30T00:55:36;4.10;;;3.03;;
7306;SDS011;3694;48.732;9.248;2023-08-30T00:58:03;3.90;;;3.37;;
7306;SDS011;3694;48.732;9.248;2023-08-30T01:00:29;4.10;;;3.23;;
7306;SDS011;3694;48.732;9.248;2023-08-30T01:02:55;4.30;;;3.30;;
7306;SDS011;3694;48.732;9.248;2023-08-30T01:05:22;3.97;;;2.90;;
7306;SDS011;3694;48.732;9.248;2023-08-30T01:07:48;4.37;;;3.50;;
7306;SDS011;3694;48.732;9.248;2023-08-30T01:10:14;3.30;;;3.00;;
7306;SDS011;3694;48.732;9.248;2023-08-30T01:12:42;4.23;;;3.83;;
7306;SDS011;3694;48.732;9.248;2023-08-30T01:15:13;3.43;;;3.03;;
7306;SDS011;3694;48.732;9.248;2023-08-30T01:17:43;3.97;;;3.40;;
7306;SDS011;3694;48.732;9.248;2023-08-30T01:20:09;3.60;;;3.13;;
7306;SDS011;3694;48.732;9.248;2023-08-30T01:27:57;3.73;;;3.13;;
7306;SDS011;3694;48.732;9.248;2023-08-30T01:30:25;3.33;;;2.93;;
7306;SDS011;3694;48.732;9.248;2023-08-30T01:32:52;5.43;;;3.47;;
7306;SDS011;3694;48.732;9.248;2023-08-30T01:35:19;3.97;;;3.40;;
7306;SDS011;3694;48.732;9.248;2023-08-30T01:37:46;3.83;;;2.97;;
7306;SDS011;3694;48.732;9.248;2023-08-30T01:40:13;3.40;;;2.97;;
7306;SDS011;3694;48.732;9.248;2023-08-30T01:42:41;3.37;;;3.07;;
7306;SDS011;3694;48.732;9.248;2023-08-30T01:45:09;3.50;;;2.73;;
7306;SDS011;3694;48.732;9.248;2023-08-30T01:47:38;2.80;;;2.50;;
7306;SDS011;3694;48.732;9.248;2023-08-30T01:50:06;3.83;;;3.10;;
7306;SDS011;3694;48.732;9.248;2023-08-30T01:52:32;3.17;;;2.87;;
7306;SDS011;3694;48.732;9.248;2023-08-30T01:54:58;3.07;;;2.73;;
7306;SDS011;3694;48.732;9.248;2023-08-30T01:57:27;2.90;;;2.60;;
7306;SDS011;3694;48.732;9.248;2023-08-30T01:59:52;2.97;;;2.70;;
7306;SDS011;3694;48.732;9.248;2023-08-30T02:02:18;3.30;;;2.63;;
7306;SDS011;3694;48.732;9.248;2023-08-30T02:04:44;2.87;;;2.57;;
7306;SDS011;3694;48.732;9.248;2023-08-30T02:07:13;2.73;;;2.47;;
7306;SDS011;3694;48.732;9.248;2023-08-30T02:09:44;3.40;;;3.10;;
7306;SDS011;3694;48.732;9.248;2023-08-30T02:12:19;2.47;;;2.27;;
7306;SDS011;3694;48.732;9.248;2023-08-30T02:14:49;3.73;;;3.33;;
7306;SDS011;3694;48.732;9.248;2023-08-30T02:17:15;2.73;;;2.50;;
7306;SDS011;3694;48.732;9.248;2023-08-30T02:19:42;2.73;;;2.53;;
7306;SDS011;3694;48.732;9.248;2023-08-30T02:22:09;2.93;;;2.63;;
7306;SDS011;3694;48.732;9.248;2023-08-30T02:24:35;3.00;;;2.40;;
7306;SDS011;3694;48.732;9.248;2023-08-30T02:27:00;3.50;;;3.20;;
7306;SDS011;3694;48.732;9.248;2023-08-30T02:29:26;4.30;;;3.30;;
7306;SDS011;3694;48.732;9.248;2023-08-30T02:31:52;2.87;;;2.53;;
7306;SDS011;3694;48.732;9.248;2023-08-30T02:34:17;3.30;;;2.73;;
7306;SDS011;3694;48.732;9.248;2023-08-30T02:36:43;5.17;;;3.37;;
7306;SDS011;3694;48.732;9.248;2023-08-30T02:39:08;4.40;;;3.53;;
7306;SDS011;3694;48.732;9.248;2023-08-30T02:41:34;3.33;;;2.90;;
7306;SDS011;3694;48.732;9.248;2023-08-30T02:44:00;3.93;;;3.50;;
7306;SDS011;3694;48.732;9.248;2023-08-30T02:46:25;4.20;;;3.53;;
7306;SDS011;3694;48.732;9.248;2023-08-30T02:48:51;3.97;;;3.53;;
7306;SDS011;3694;48.732;9.248;2023-08-30T02:51:16;3.80;;;3.30;;
7306;SDS011;3694;48.732;9.248;2023-08-30T02:53:42;3.77;;;3.20;;
7306;SDS011;3694;48.732;9.248;2023-08-30T02:56:08;3.63;;;3.33;;
7306;SDS011;3694;48.732;9.248;2023-08-30T02:58:33;3.30;;;2.90;;
7306;SDS011;3694;48.732;9.248;2023-08-30T03:00:59;4.33;;;3.70;;
7306;SDS011;3694;48.732;9.248;2023-08-30T03:03:26;4.23;;;3.40;;
7306;SDS011;3694;48.732;9.248;2023-08-30T03:05:51;4.47;;;3.43;;
7306;SDS011;3694;48.732;9.248;2023-08-30T03:08:17;4.33;;;3.33;;
7306;SDS011;3694;48.732;9.248;2023-08-30T03:10:42;3.17;;;2.87;;
7306;SDS011;3694;48.732;9.248;2023-08-30T03:13:08;3.10;;;2.70;;
7306;SDS011;3694;48.732;9.248;2023-08-30T03:15:33;3.17;;;2.87;;
7306;SDS011;3694;48.732;9.248;2023-08-30T03:17:59;2.97;;;2.73;;
7306;SDS011;3694;48.732;9.248;2023-08-30T03:20:25;4.27;;;3.43;;
7306;SDS011;3694;48.732;9.248;2023-08-30T03:22:53;2.50;;;2.30;;
7306;SDS011;3694;48.732;9.248;2023-08-30T03:25:20;3.87;;;3.17;;
7306;SDS011;3694;48.732;9.248;2023-08-30T03:27:46;3.80;;;2.60;;
7306;SDS011;3694;48.732;9.248;2023-08-30T03:30:12;3.47;;;2.97;;
7306;SDS011;3694;48.732;9.248;2023-08-30T03:32:37;3.33;;;2.87;;
7306;SDS011;3694;48.732;9.248;2023-08-30T03:35:03;3.20;;;2.90;;
7306;SDS011;3694;48.732;9.248;2023-08-30T03:37:29;3.93;;;2.87;;
7306;SDS011;3694;48.732;9.248;2023-08-30T03:39:54;3.80;;;3.33;;
7306;SDS011;3694;48.732;9.248;2023-08-30T03:42:20;2.83;;;2.63;;
7306;SDS011;3694;48.732;9.248;2023-08-30T03:44:45;2.43;;;2.23;;
7306;SDS011;3694;48.732;9.248;2023-08-30T03:47:11;3.20;;;2.60;;
7306;SDS011;3694;48.732;9.248;2023-08-30T03:49:37;4.40;;;3.13;;
7306;SDS011;3694;48.732;9.248;2023-08-30T03:52:02;4.13;;;3.37;;
7306;SDS011;3694;48.732;9.248;2023-08-30T03:54:28;3.37;;;3.07;;
7306;SDS011;3694;48.732;9.248;2023-08-30T03:56:53;4.47;;;3.53;;
7306;SDS011;3694;48.732;9.248;2023-08-30T03:59:19;6.17;;;3.20;;
7306;SDS011;3694;48.732;9.248;2023-08-30T04:01:44;5.00;;;4.00;;
7306;SDS011;3694;48.732;9.248;2023-08-30T04:04:10;3.13;;;2.77;;
7306;SDS011;3694;48.732;9.248;2023-08-30T04:06:36;3.77;;;2.83;;
7306;SDS011;3694;48.732;9.248;2023-08-30T04:09:01;4.27;;;3.13;;
7306;SDS011;3694;48.732;9.248;2023-08-30T04:11:27;3.43;;;2.97;;
7306;SDS011;3694;48.732;9.248;2023-08-30T04:13:53;4.30;;;3.00;;
7306;SDS011;3694;48.732;9.248;2023-08-30T04:16:18;3.93;;;3.10;;
7306;SDS011;3694;48.732;9.248;2023-08-30T04:18:44;3.40;;;3.03;;
7306;SDS011;3694;48.732;9.248;2023-08-30T04:21:09;4.20;;;3.33;;
7306;SDS011;3694;48.732;9.248;2023-08-30T04:23:35;4.83;;;3.37;;
7306;SDS011;3694;48.732;9.248;2023-08-30T04:26:00;7.80;;;3.63;;
7306;SDS011;3694;48.732;9.248;2023-08-30T04:28:26;3.67;;;3.20;;
7306;SDS011;3694;48.732;9.248;2023-08-30T04:30:55;3.87;;;2.90;;
7306;SDS011;3694;48.732;9.248;2023-08-30T04:33:21;4.70;;;3.17;;
7306;SDS011;3694;48.732;9.248;2023-08-30T04:35:51;3.93;;;3.20;;
7306;SDS011;3694;48.732;9.248;2023-08-30T04:38:18;3.80;;;2.87;;
7306;SDS011;3694;48.732;9.248;2023-08-30T04:40:44;3.57;;;2.90;;
7306;SDS011;3694;48.732;9.248;2023-08-30T04:43:10;5.20;;;3.17;;
7306;SDS011;3694;48.732;9.248;2023-08-30T04:45:36;6.93;;;3.37;;
7306;SDS011;3694;48.732;9.248;2023-08-30T04:48:01;4.53;;;3.23;;
7306;SDS011;3694;48.732;9.248;2023-08-30T04:50:27;3.47;;;3.17;;
7306;SDS011;3694;48.732;9.248;2023-08-30T04:52:53;3.67;;;3.00;;
7306;SDS011;3694;48.732;9.248;2023-08-30T04:55:18;3.30;;;3.00;;
7306;SDS011;3694;48.732;9.248;2023-08-30T04:57:44;3.67;;;3.00;;
7306;SDS011;3694;48.732;9.248;2023-08-30T05:00:11;3.60;;;3.00;;
7306;SDS011;3694;48.732;9.248;2023-08-30T05:02:37;4.60;;;3.20;;
7306;SDS011;3694;48.732;9.248;2023-08-30T05:05:03;5.17;;;3.50;;
7306;SDS011;3694;48.732;9.248;2023-08-30T05:07:28;5.43;;;2.73;;
7306;SDS011;3694;48.732;9.248;2023-08-30T05:09:54;4.43;;;3.50;;
7306;SDS011;3694;48.732;9.248;2023-08-30T05:12:20;3.53;;;2.90;;
7306;SDS011;3694;48.732;9.248;2023-08-30T05:14:45;2.67;;;2.47;;
7306;SDS011;3694;48.732;9.248;2023-08-30T05:17:11;3.57;;;3.00;;
7306;SDS011;3694;48.732;9.248;2023-08-30T05:19:36;4.23;;;3.40;;
7306;SDS011;3694;48.732;9.248;2023-08-30T05:22:02;5.13;;;2.73;;
7306;SDS011;3694;48.732;9.248;2023-08-30T05:24:28;4.77;;;3.27;;
7306;SDS011;3694;48.732;9.248;2023-08-30T05:26:54;3.40;;;2.97;;
7306;SDS011;3694;48.732;9.248;2023-08-30T05:29:19;3.27;;;2.77;;
7306;SDS011;3694;48.732;9.248;2023-08-30T05:31:47;3.33;;;2.80;;
7306;SDS011;3694;48.732;9.248;2023-08-30T05:34:12;3.40;;;3.10;;
7306;SDS011;3694;48.732;9.248;2023-08-30T05:36:38;3.03;;;2.73;;
7306;SDS011;3694;48.732;9.248;2023-08-30T05:39:03;3.80;;;3.30;;
7306;SDS011;3694;48.732;9.248;2023-08-30T05:41:29;4.20;;;3.27;;
7306;SDS011;3694;48.732;9.248;2023-08-30T05:43:55;3.63;;;3.30;;
7306;SDS011;3694;48.732;9.248;2023-08-30T05:46:20;3.93;;;2.90;;
7306;SDS011;3694;48.732;9.248;2023-08-30T05:48:46;4.50;;;2.93;;
7306;SDS011;3694;48.732;9.248;2023-08-30T05:51:12;2.80;;;2.53;;
7306;SDS011;3694;48.732;9.248;2023-08-30T05:53:37;3.40;;;3.10;;
7306;SDS011;3694;48.732;9.248;2023-08-30T05:56:03;5.17;;;3.47;;
7306;SDS011;3694;48.732;9.248;2023-08-30T05:58:29;2.97;;;2.40;;
7306;SDS011;3694;48.732;9.248;2023-08-30T06:00:55;4.10;;;2.80;;
7306;SDS011;3694;48.732;9.248;2023-08-30T06:03:21;3.67;;;3.00;;
7306;SDS011;3694;48.732;9.248;2023-08-30T06:05:47;4.17;;;3.20;;
7306;SDS011;3694;48.732;9.248;2023-08-30T06:08:13;5.33;;;3.30;;
7306;SDS011;3694;48.732;9.248;2023-08-30T06:10:39;5.37;;;3.47;;
7306;SDS011;3694;48.732;9.248;2023-08-30T06:13:05;3.10;;;2.80;;
7306;SDS011;3694;48.732;9.248;2023-08-30T06:15:30;4.50;;;2.97;;
7306;SDS011;3694;48.732;9.248;2023-08-30T06:17:56;4.37;;;3.13;;
7306;SDS011;3694;48.732;9.248;2023-08-30T06:20:21;4.00;;;3.20;;
7306;SDS011;3694;48.732;9.248;2023-08-30T06:22:47;4.80;;;3.03;;
7306;SDS011;3694;48.732;9.248;2023-08-30T06:25:12;3.67;;;2.57;;
7306;SDS011;3694;48.732;9.248;2023-08-30T06:27:40;3.90;;;3.17;;
7306;SDS011;3694;48.732;9.248;2023-08-30T06:30:08;3.17;;;2.83;;
7306;SDS011;3694;48.732;9.248;2023-08-30T06:32:35;3.27;;;2.97;;
7306;SDS011;3694;48.732;9.248;2023-08-30T06:35:00;3.57;;;3.00;;
7306;SDS011;3694;48.732;9.248;2023-08-30T06:37:26;3.43;;;2.97;;
7306;SDS011;3694;48.732;9.248;2023-08-30T06:39:51;3.07;;;2.67;;
7306;SDS011;3694;48.732;9.248;2023-08-30T06:42:17;3.63;;;3.00;;
7306;SDS011;3694;48.732;9.248;2023-08-30T06:44:42;3.47;;;2.97;;
7306;SDS011;3694;48.732;9.248;2023-08-30T06:47:08;2.90;;;2.60;;
7306;SDS011;3694;48.732;9.248;2023-08-30T06:49:33;3.67;;;3.03;;
7306;SDS011;3694;48.732;9.248;2023-08-30T06:51:59;3.43;;;3.07;;
7306;SDS011;3694;48.732;9.248;2023-08-30T06:54:28;4.37;;;3.47;;
7306;SDS011;3694;48.732;9.248;2023-08-30T06:56:58;3.57;;;3.07;;
7306;SDS011;3694;48.732;9.248;2023-08-30T06:59:27;5.03;;;2.87;;
7306;SDS011;3694;48.732;9.248;2023-08-30T07:01:53;3.40;;;3.00;;
7306;SDS011;3694;48.732;9.248;2023-08-30T07:04:19;3.63;;;2.97;;
7306;SDS011;3694;48.732;9.248;2023-08-30T07:06:45;3.93;;;3.23;;
7306;SDS011;3694;48.732;9.248;2023-08-30T07:09:10;4.27;;;3.10;;
7306;SDS011;3694;48.732;9.248;2023-08-30T07:11:36;3.77;;;3.13;;
7306;SDS011;3694;48.732;9.248;2023-08-30T07:14:02;3.67;;;2.93;;
7306;SDS011;3694;48.732;9.248;2023-08-30T07:16:28;4.13;;;3.07;;
7306;SDS011;3694;48.732;9.248;2023-08-30T07:18:54;4.00;;;3.30;;
7306;SDS011;3694;48.732;9.248;2023-08-30T07:21:19;3.10;;;2.80;;
7306;SDS011;3694;48.732;9.248;2023-08-30T07:23:45;3.63;;;2.97;;
7306;SDS011;3694;48.732;9.248;2023-08-30T07:26:11;4.83;;;3.10;;
7306;SDS011;3694;48.732;9.248;2023-08-30T07:28:36;4.23;;;3.17;;
7306;SDS011;3694;48.732;9.248;2023-08-30T07:31:05;3.07;;;2.63;;
7306;SDS011;3694;48.732;9.248;2023-08-30T07:33:30;3.37;;;2.87;;
7306;SDS011;3694;48.732;9.248;2023-08-30T07:35:56;3.87;;;2.83;;
7306;SDS011;3694;48.732;9.248;2023-08-30T07:38:22;4.00;;;2.87;;
7306;SDS011;3694;48.732;9.248;2023-08-30T07:40:47;3.77;;;2.93;;
7306;SDS011;3694;48.732;9.248;2023-08-30T07:43:13;4.10;;;3.00;;
7306;SDS011;3694;48.732;9.248;2023-08-30T07:45:39;3.10;;;2.80;;
7306;SDS011;3694;48.732;9.248;2023-08-30T07:48:04;2.90;;;2.47;;
7306;SDS011;3694;48.732;9.248;2023-08-30T07:50:30;2.87;;;2.50;;
7306;SDS011;3694;48.732;9.248;2023-08-30T07:52:55;3.10;;;2.40;;
7306;SDS011;3694;48.732;9.248;2023-08-30T07:55:21;3.03;;;2.60;;
7306;SDS011;3694;48.732;9.248;2023-08-30T07:57:46;3.30;;;2.90;;
7306;SDS011;3694;48.732;9.248;2023-08-30T08:00:12;5.17;;;2.90;;
7306;SDS011;3694;48.732;9.248;2023-08-30T08:02:39;2.77;;;2.57;;
7306;SDS011;3694;48.732;9.248;2023-08-30T08:05:05;3.10;;;2.80;;
7306;SDS011;3694;48.732;9.248;2023-08-30T08:07:30;2.73;;;2.53;;
7306;SDS011;3694;48.732;9.248;2023-08-30T08:09:56;2.63;;;2.40;;
7306;SDS011;3694;48.732;9.248;2023-08-30T08:12:22;2.43;;;2.20;;
7306;SDS011;3694;48.732;9.248;2023-08-30T08:14:47;2.50;;;2.30;;
7306;SDS011;3694;48.732;9.248;2023-08-30T08:17:13;2.07;;;1.97;;
7306;SDS011;3694;48.732;9.248;2023-08-30T08:19:38;1.97;;;1.87;;
7306;SDS011;3694;48.732;9.248;2023-08-30T08:22:05;1.83;;;1.67;;
7306;SDS011;3694;48.732;9.248;2023-08-30T08:24:30;1.80;;;1.70;;
7306;SDS011;3694;48.732;9.248;2023-08-30T08:26:56;1.60;;;1.50;;
7306;SDS011;3694;48.732;9.248;2023-08-30T08:29:22;1.63;;;1.40;;
7306;SDS011;3694;48.732;9.248;2023-08-30T08:31:47;1.30;;;1.30;;
7306;SDS011;3694;48.732;9.248;2023-08-30T08:34:13;1.97;;;1.77;;
7306;SDS011;3694;48.732;9.248;2023-08-30T08:36:40;1.73;;;1.63;;
7306;SDS011;3694;48.732;9.248;2023-08-30T08:39:07;1.90;;;1.37;;
7306;SDS011;3694;48.732;9.248;2023-08-30T08:41:39;1.60;;;1.50;;
7306;SDS011;3694;48.732;9.248;2023-08-30T08:44:09;2.43;;;1.60;;
7306;SDS011;3694;48.732;9.248;2023-08-30T08:46:35;1.30;;;1.20;;
7306;SDS011;3694;48.732;9.248;2023-08-30T08:49:07;1.37;;;1.27;;
7306;SDS011;3694;48.732;9.248;2023-08-30T08:51:38;0.97;;;0.97;;
7306;SDS011;3694;48.732;9.248;2023-08-30T08:54:05;1.37;;;1.27;;
7306;SDS011;3694;48.732;9.248;2023-08-30T08:56:31;1.03;;;1.00;;
7306;SDS011;3694;48.732;9.248;2023-08-30T08:58:58;1.27;;;1.17;;
7306;SDS011;3694;48.732;9.248;2023-08-30T09:01:24;1.17;;;1.07;;
7306;SDS011;3694;48.732;9.248;2023-08-30T09:03:51;1.27;;;1.17;;
7306;SDS011;3694;48.732;9.248;2023-08-30T09:06:16;1.20;;;1.10;;
7306;SDS011;3694;48.732;9.248;2023-08-30T09:08:43;1.30;;;1.27;;
7306;SDS011;3694;48.732;9.248;2023-08-30T09:11:08;1.13;;;1.10;;
7306;SDS011;3694;48.732;9.248;2023-08-30T09:13:34;2.67;;;0.90;;
7306;SDS011;3694;48.732;9.248;2023-08-30T09:15:59;1.17;;;1.13;;
7306;SDS011;3694;48.732;9.248;2023-08-30T09:18:25;1.20;;;1.10;;
7306;SDS011;3694;48.732;9.248;2023-08-30T09:21:08;1.13;;;1.03;;
7306;SDS011;3694;48.732;9.248;2023-08-30T09:23:34;0.90;;;0.90;;
7306;SDS011;3694;48.732;9.248;2023-08-30T09:26:00;0.90;;;0.90;;
7306;SDS011;3694;48.732;9.248;2023-08-30T09:28:27;0.80;;;0.80;;
7306;SDS011;3694;48.732;9.248;2023-08-30T09:30:53;1.00;;;0.90;;
7306;SDS011;3694;48.732;9.248;2023-08-30T09:33:23;0.60;;;0.60;;
7306;SDS011;3694;48.732;9.248;2023-08-30T09:35:54;1.03;;;1.03;;
7306;SDS011;3694;48.732;9.248;2023-08-30T09:38:20;1.13;;;1.10;;
7306;SDS011;3694;48.732;9.248;2023-08-30T09:40:46;1.10;;;1.00;;
7306;SDS011;3694;48.732;9.248;2023-08-30T09:43:12;0.80;;;0.80;;
7306;SDS011;3694;48.732;9.248;2023-08-30T09:45:38;0.93;;;0.93;;
7306;SDS011;3694;48.732;9.248;2023-08-30T09:48:05;0.80;;;0.80;;
7306;SDS011;3694;48.732;9.248;2023-08-30T09:50:34;0.80;;;0.80;;
7306;SDS011;3694;48.732;9.248;2023-08-30T09:53:07;0.80;;;0.80;;
7306;SDS011;3694;48.732;9.248;2023-08-30T09:55:34;1.27;;;0.90;;
7306;SDS011;3694;48.732;9.248;2023-08-30T09:58:03;0.80;;;0.80;;
7306;SDS011;3694;48.732;9.248;2023-08-30T10:00:30;1.30;;;0.80;;
7306;SDS011;3694;48.732;9.248;2023-08-30T10:02:57;0.93;;;0.93;;
7306;SDS011;3694;48.732;9.248;2023-08-30T10:05:24;0.80;;;0.80;;
7306;SDS011;3694;48.732;9.248;2023-08-30T10:07:52;0.87;;;0.70;;
7306;SDS011;3694;48.732;9.248;2023-08-30T10:10:19;0.80;;;0.80;;
7306;SDS011;3694;48.732;9.248;2023-08-30T10:12:46;1.07;;;0.97;;
7306;SDS011;3694;48.732;9.248;2023-08-30T10:15:11;0.97;;;0.97;;
7306;SDS011;3694;48.732;9.248;2023-08-30T10:17:38;1.20;;;0.90;;
7306;SDS011;3694;48.732;9.248;2023-08-30T10:20:06;0.77;;;0.77;;
7306;SDS011;3694;48.732;9.248;2023-08-30T10:22:32;1.17;;;0.83;;
7306;SDS011;3694;48.732;9.248;2023-08-30T10:25:02;0.90;;;0.90;;
7306;SDS011;3694;48.732;9.248;2023-08-30T10:27:34;0.40;;;0.40;;
7306;SDS011;3694;48.732;9.248;2023-08-30T10:30:02;0.50;;;0.50;;
7306;SDS011;3694;48.732;9.248;2023-08-30T10:32:30;0.63;;;0.63;;
7306;SDS011;3694;48.732;9.248;2023-08-30T10:35:00;0.67;;;0.67;;
7306;SDS011;3694;48.732;9.248;2023-08-30T10:37:26;0.77;;;0.77;;
7306;SDS011;3694;48.732;9.248;2023-08-30T10:39:52;0.67;;;0.60;;
7306;SDS011;3694;48.732;9.248;2023-08-30T10:42:23;0.67;;;0.60;;
7306;SDS011;3694;48.732;9.248;2023-08-30T10:44:59;0.60;;;0.60;;
7306;SDS011;3694;48.732;9.248;2023-08-30T10:47:32;0.63;;;0.63;;
7306;SDS011;3694;48.732;9.248;2023-08-30T10:50:06;0.70;;;0.70;;
7306;SDS011;3694;48.732;9.248;2023-08-30T10:52:33;0.70;;;0.70;;
7306;SDS011;3694;48.732;9.248;2023-08-30T10:55:05;0.50;;;0.50;;
7306;SDS011;3694;48.732;9.248;2023-08-30T10:57:41;0.80;;;0.63;;
7306;SDS011;3694;48.732;9.248;2023-08-30T11:00:12;0.90;;;0.90;;
7306;SDS011;3694;48.732;9.248;2023-08-30T11:02:45;0.80;;;0.80;;
7306;SDS011;3694;48.732;9.248;2023-08-30T11:05:13;0.50;;;0.50;;
7306;SDS011;3694;48.732;9.248;2023-08-30T11:07:40;0.67;;;0.67;;
7306;SDS011;3694;48.732;9.248;2023-08-30T11:10:06;0.70;;;0.70;;
7306;SDS011;3694;48.732;9.248;2023-08-30T11:12:33;0.73;;;0.70;;
7306;SDS011;3694;48.732;9.248;2023-08-30T11:14:59;0.60;;;0.60;;
7306;SDS011;3694;48.732;9.248;2023-08-30T11:17:25;0.40;;;0.40;;
7306;SDS011;3694;48.732;9.248;2023-08-30T11:19:57;0.80;;;0.80;;
7306;SDS011;3694;48.732;9.248;2023-08-30T11:22:29;0.60;;;0.60;;
7306;SDS011;3694;48.732;9.248;2023-08-30T11:24:55;1.20;;;1.10;;
7306;SDS011;3694;48.732;9.248;2023-08-30T11:27:21;0.60;;;0.60;;
7306;SDS011;3694;48.732;9.248;2023-08-30T11:29:46;0.60;;;0.60;;
7306;SDS011;3694;48.732;9.248;2023-08-30T11:32:12;0.77;;;0.77;;
7306;SDS011;3694;48.732;9.248;2023-08-30T11:34:37;0.43;;;0.43;;
7306;SDS011;3694;48.732;9.248;2023-08-30T11:37:03;0.43;;;0.43;;
7306;SDS011;3694;48.732;9.248;2023-08-30T11:39:29;0.50;;;0.50;;
7306;SDS011;3694;48.732;9.248;2023-08-30T11:41:54;0.60;;;0.60;;
7306;SDS011;3694;48.732;9.248;2023-08-30T11:44:22;0.70;;;0.70;;
7306;SDS011;3694;48.732;9.248;2023-08-30T11:46:48;0.30;;;0.30;;
7306;SDS011;3694;48.732;9.248;2023-08-30T11:49:14;0.60;;;0.60;;
7306;SDS011;3694;48.732;9.248;2023-08-30T11:51:41;0.63;;;0.63;;
7306;SDS011;3694;48.732;9.248;2023-08-30T11:54:07;0.80;;;0.80;;
7306;SDS011;3694;48.732;9.248;2023-08-30T11:56:33;0.60;;;0.60;;
7306;SDS011;3694;48.732;9.248;2023-08-30T11:59:00;0.40;;;0.40;;
7306;SDS011;3694;48.732;9.248;2023-08-30T12:01:27;0.50;;;0.50;;
7306;SDS011;3694;48.732;9.248;2023-08-30T12:03:53;0.70;;;0.70;;
7306;SDS011;3694;48.732;9.248;2023-08-30T12:06:18;0.53;;;0.53;;
7306;SDS011;3694;48.732;9.248;2023-08-30T12:08:44;0.60;;;0.60;;
7306;SDS011;3694;48.732;9.248;2023-08-30T12:11:19;0.50;;;0.50;;
7306;SDS011;3694;48.732;9.248;2023-08-30T12:13:45;1.00;;;0.60;;
7306;SDS011;3694;48.732;9.248;2023-08-30T12:16:16;0.50;;;0.50;;
7306;SDS011;3694;48.732;9.248;2023-08-30T12:18:42;0.67;;;0.50;;
7306;SDS011;3694;48.732;9.248;2023-08-30T12:21:08;0.30;;;0.30;;
7306;SDS011;3694;48.732;9.248;2023-08-30T12:23:34;0.30;;;0.30;;
7306;SDS011;3694;48.732;9.248;2023-08-30T12:26:00;0.40;;;0.40;;
7306;SDS011;3694;48.732;9.248;2023-08-30T12:28:30;0.30;;;0.30;;
7306;SDS011;3694;48.732;9.248;2023-08-30T12:30:56;0.30;;;0.30;;
7306;SDS011;3694;48.732;9.248;2023-08-30T12:33:22;1.13;;;0.40;;
7306;SDS011;3694;48.732;9.248;2023-08-30T12:35:50;0.30;;;0.30;;
7306;SDS011;3694;48.732;9.248;2023-08-30T12:38:17;0.87;;;0.70;;
7306;SDS011;3694;48.732;9.248;2023-08-30T12:40:45;0.60;;;0.60;;
7306;SDS011;3694;48.732;9.248;2023-08-30T12:43:12;0.70;;;0.70;;
7306;SDS011;3694;48.732;9.248;2023-08-30T12:45:39;0.73;;;0.73;;
7306;SDS011;3694;48.732;9.248;2023-08-30T12:48:06;0.67;;;0.67;;
7306;SDS011;3694;48.732;9.248;2023-08-30T12:50:32;0.60;;;0.60;;
7306;SDS011;3694;48.732;9.248;2023-08-30T12:52:57;1.00;;;0.90;;
7306;SDS011;3694;48.732;9.248;2023-08-30T12:55:23;0.80;;;0.80;;
7306;SDS011;3694;48.732;9.248;2023-08-30T12:57:48;0.47;;;0.47;;
7306;SDS011;3694;48.732;9.248;2023-08-30T13:00:14;0.70;;;0.70;;
7306;SDS011;3694;48.732;9.248;2023-08-30T13:02:40;0.80;;;0.80;;
7306;SDS011;3694;48.732;9.248;2023-08-30T13:05:05;1.13;;;0.97;;
7306;SDS011;3694;48.732;9.248;2023-08-30T13:07:31;0.70;;;0.70;;
7306;SDS011;3694;48.732;9.248;2023-08-30T13:09:56;0.80;;;0.70;;
7306;SDS011;3694;48.732;9.248;2023-08-30T13:12:22;1.90;;;0.80;;
7306;SDS011;3694;48.732;9.248;2023-08-30T13:14:47;0.93;;;0.80;;
7306;SDS011;3694;48.732;9.248;2023-08-30T13:17:13;0.77;;;0.67;;
7306;SDS011;3694;48.732;9.248;2023-08-30T13:19:39;0.80;;;0.73;;
7306;SDS011;3694;48.732;9.248;2023-08-30T13:22:05;0.80;;;0.80;;
7306;SDS011;3694;48.732;9.248;2023-08-30T13:24:30;0.60;;;0.60;;
7306;SDS011;3694;48.732;9.248;2023-08-30T13:26:57;0.57;;;0.57;;
7306;SDS011;3694;48.732;9.248;2023-08-30T13:29:23;0.70;;;0.70;;
7306;SDS011;3694;48.732;9.248;2023-08-30T13:31:48;0.40;;;0.40;;
7306;SDS011;3694;48.732;9.248;2023-08-30T13:34:14;1.57;;;0.67;;
7306;SDS011;3694;48.732;9.248;2023-08-30T13:36:40;1.13;;;1.03;;
7306;SDS011;3694;48.732;9.248;2023-08-30T13:39:05;1.17;;;0.60;;
7306;SDS011;3694;48.732;9.248;2023-08-30T13:41:31;0.60;;;0.60;;
7306;SDS011;3694;48.732;9.248;2023-08-30T13:43:56;0.40;;;0.40;;
7306;SDS011;3694;48.732;9.248;2023-08-30T13:46:22;0.30;;;0.30;;
7306;SDS011;3694;48.732;9.248;2023-08-30T13:48:47;0.40;;;0.40;;
7306;SDS011;3694;48.732;9.248;2023-08-30T13:51:13;0.60;;;0.60;;
7306;SDS011;3694;48.732;9.248;2023-08-30T13:53:39;0.60;;;0.60;;
7306;SDS011;3694;48.732;9.248;2023-08-30T13:56:04;0.43;;;0.43;;
7306;SDS011;3694;48.732;9.248;2023-08-30T13:58:30;0.40;;;0.40;;
7306;SDS011;3694;48.732;9.248;2023-08-30T14:00:55;0.40;;;0.40;;
7306;SDS011;3694;48.732;9.248;2023-08-30T14:03:21;1.30;;;0.70;;
7306;SDS011;3694;48.732;9.248;2023-08-30T14:05:46;0.30;;;0.30;;
7306;SDS011;3694;48.732;9.248;2023-08-30T14:08:12;0.57;;;0.57;;
7306;SDS011;3694;48.732;9.248;2023-08-30T14:10:38;0.57;;;0.57;;
7306;SDS011;3694;48.732;9.248;2023-08-30T14:13:03;0.60;;;0.60;;
7306;SDS011;3694;48.732;9.248;2023-08-30T14:15:30;0.50;;;0.50;;
7306;SDS011;3694;48.732;9.248;2023-08-30T14:17:56;0.40;;;0.40;;
7306;SDS011;3694;48.732;9.248;2023-08-30T14:20:21;0.37;;;0.37;;
7306;SDS011;3694;48.732;9.248;2023-08-30T14:22:47;0.47;;;0.47;;
7306;SDS011;3694;48.732;9.248;2023-08-30T14:25:13;0.40;;;0.40;;
7306;SDS011;3694;48.732;9.248;2023-08-30T14:27:39;0.40;;;0.40;;
7306;SDS011;3694;48.732;9.248;2023-08-30T14:30:05;0.57;;;0.57;;
7306;SDS011;3694;48.732;9.248;2023-08-30T14:32:31;0.40;;;0.40;;
7306;SDS011;3694;48.732;9.248;2023-08-30T14:34:57;0.50;;;0.50;;
7306;SDS011;3694;48.732;9.248;2023-08-30T14:37:22;0.50;;;0.50;;
7306;SDS011;3694;48.732;9.248;2023-08-30T14:39:48;0.40;;;0.40;;
7306;SDS011;3694;48.732;9.248;2023-08-30T14:42:14;0.30;;;0.30;;
7306;SDS011;3694;48.732;9.248;2023-08-30T14:44:39;0.53;;;0.53;;
7306;SDS011;3694;48.732;9.248;2023-08-30T14:47:05;0.80;;;0.80;;
7306;SDS011;3694;48.732;9.248;2023-08-30T14:49:30;0.57;;;0.57;;
7306;SDS011;3694;48.732;9.248;2023-08-30T14:51:59;0.70;;;0.70;;
7306;SDS011;3694;48.732;9.248;2023-08-30T14:54:25;0.60;;;0.60;;
7306;SDS011;3694;48.732;9.248;2023-08-30T14:56:50;0.70;;;0.70;;
7306;SDS011;3694;48.732;9.248;2023-08-30T14:59:16;0.50;;;0.50;;
7306;SDS011;3694;48.732;9.248;2023-08-30T15:01:41;0.50;;;0.50;;
7306;SDS011;3694;48.732;9.248;2023-08-30T15:04:07;0.50;;;0.50;;
7306;SDS011;3694;48.732;9.248;2023-08-30T15:06:33;0.53;;;0.53;;
7306;SDS011;3694;48.732;9.248;2023-08-30T15:08:59;0.43;;;0.43;;
7306;SDS011;3694;48.732;9.248;2023-08-30T15:11:25;0.43;;;0.43;;
7306;SDS011;3694;48.732;9.248;2023-08-30T15:13:51;0.60;;;0.60;;
7306;SDS011;3694;48.732;9.248;2023-08-30T15:16:16;0.63;;;0.63;;